METAR AND TAF INFORMATION
METAR FOR LFST
ADDS - METARS form results

(0735 UTC 17 February 2019)
Data provider http://aviationweather.gov/metar/data/
 
METAR text: LFST 170730Z AUTO 00000KT 6000 NSC M01/M02 Q1026 TEMPO 4000 BR
Conditions at: LFST (STRASBOURG/ENTZH, FR) observed 0730 UTC 17 February 2019
Temperature: -1.0°C (30°F)
Dewpoint: -2.0°C (28°F) [RH = 93%]
Pressure (altimeter): 30.30 inches Hg (1026.0 mb)
Winds: calm
Visibility: 4 miles ( 6 km)
Ceiling: at least 12,000 feet AGL
Clouds: sky clear below 12,000 feet AGL
Weather: no significant weather observed at this time

METAR text: LFST 170700Z AUTO VRB02KT 6000 NSC M02/M02 Q1026 TEMPO 4000 BR
Conditions at: LFST (STRASBOURG/ENTZH, FR) observed 0700 UTC 17 February 2019
Temperature: -2.0°C (28°F)
Dewpoint: -2.0°C (28°F) [RH = 100%]
Pressure (altimeter): 30.30 inches Hg (1026.0 mb)
Winds: variable direction winds at 2 MPH (2 knots; 1.0 m/s)
Visibility: 4 miles ( 6 km)
Ceiling: at least 12,000 feet AGL
Clouds: sky clear below 12,000 feet AGL
Weather: no significant weather observed at this time

Forecast for: LFST (STRASBOURG/ENTZH, FR)
Text: TAF LFST 170500Z 1706/1806 18003KT CAVOK
Forecast period: 0600 to 2100 UTC 17 February 2019
Forecast type: FROM: standard forecast or significant change
Winds: from the S (180 degrees) at 3 MPH (3 knots; 1.5 m/s)
Visibility: 6 or more miles 10+ km)
Ceiling: unknown
Clouds: missing
Weather: NSW  (no significant weather)
Text: TEMPO 1706/1709 4000 BR
Forecast period: 0600 to 0900 UTC 17 February 2019
Forecast type: TEMPORARY: The following changes expected for less than half the time period
Visibility: 2.49 miles (4.01 km)
Ceiling: unknown
Clouds: missing
Weather: BR  (mist)
Text: BECMG 1721/1724 3000 BR
Forecast period: 2100 UTC 17 February 2019 to 0600 UTC 18 February 2019
Forecast type: BECOMING: Conditions expected to become as follows by 0000 UTC 18 February 2019
Winds: from the S (180 degrees) at 3 MPH (3 knots; 1.5 m/s)
Visibility: 1.86 miles (2.99 km)
Ceiling: unknown
Clouds: missing
Weather: BR  (mist)
Text: PROB40
Forecast period: 0000 to 0600 UTC 18 February 2019
Forecast type: TEMPORARY: The following changes expected for less than half the time period
Visibility: 0.75 miles (1.21 km)
Ceiling: unknown
Clouds: missing
Weather: BCFG  (patches of fog)

 AIRPORT MAP

 RUNWAY INFORMATION
Runway 05 Runway length 7874 ft Runway width 148 ft
Runway elevation 503 ft Runway displaced threshold 0 ft Runway heading 49
Runway 23 Runway length 7874 ft Runway width 148 ft
Runway elevation 491 ft Runway displaced threshold 0 ft Runway heading 229

 AIRPORT FREQUENCIES
Type APP Name STRASBOURG Frequency 119.45 MHZ
Type ATIS Name STRASBOURG Frequency 126.925 MHZ
Type GND Name STRASBOURG Frequency 121.8 MHZ
Type TWR Name STRASBOURG Frequency 126.875 MHZ

 AIRPORT NEAR NAVIGATION AIDS
Type VOR-DME Name Saverne Frequency 110450 KHZ
Type VOR-DME Name Strasbourg Frequency 115600 KHZ



Powered by Virtual Airlines Manager [v2.6.2]